Time;durP1;ratioP1;P1;durP2;ratioP2;P2;SDS_P1;SDS_P2;PMS_P1;PMS_P2;Temp;Humidity;BMP_temperature;BMP_pressure;BME280_temperature;BME280_humidity;BME280_pressure;Samples;Min_cycle;Max_cycle;Signal;HPM_P1;HPM_P2
2021/09/16 00:02:22;;;;;;;16.42;5.15;;;;;;;24.94;52.00;100726.47;5096176;28;20067;-66
2021/09/16 00:05:09;;;;;;;18.70;5.65;;;;;;;24.95;52.08;100727.25;5108229;28;20038;-67
2021/09/16 00:07:54;;;;;;;19.35;5.78;;;;;;;24.91;52.04;100721.72;5113872;28;20042;-66
2021/09/16 00:10:39;;;;;;;21.02;4.97;;;;;;;24.95;52.03;100722.47;5114092;28;20047;-67
2021/09/16 00:13:24;;;;;;;13.45;4.82;;;;;;;25.01;51.76;100720.03;5110367;28;20534;-67
2021/09/16 00:16:09;;;;;;;15.65;4.60;;;;;;;25.08;51.75;100717.19;5113870;28;20050;-67
2021/09/16 00:18:53;;;;;;;10.55;5.75;;;;;;;25.09;51.73;100713.97;5113850;28;20054;-67
2021/09/16 00:21:39;;;;;;;15.75;4.45;;;;;;;25.11;51.63;100721.91;5113655;28;20058;-67
2021/09/16 00:24:24;;;;;;;21.13;5.97;;;;;;;25.11;51.33;100727.50;5113659;28;20042;-67
2021/09/16 00:27:10;;;;;;;10.88;4.03;;;;;;;25.11;51.65;100714.38;5113479;28;20054;-67
2021/09/16 00:29:55;;;;;;;11.10;4.22;;;;;;;25.11;51.62;100706.00;5113758;28;20039;-67
2021/09/16 00:32:40;;;;;;;12.23;4.70;;;;;;;25.07;51.71;100698.91;5113415;28;20411;-67
2021/09/16 00:35:25;;;;;;;13.90;4.22;;;;;;;25.08;51.68;100700.50;5113529;28;20046;-67
2021/09/16 00:38:10;;;;;;;12.95;5.00;;;;;;;25.07;51.51;100704.47;5100943;28;20047;-67
2021/09/16 00:40:55;;;;;;;15.55;4.97;;;;;;;25.07;51.41;100710.84;5102853;28;20054;-67
2021/09/16 00:43:41;;;;;;;14.65;4.35;;;;;;;25.03;51.53;100701.75;5102798;28;20039;-68
2021/09/16 00:46:26;;;;;;;12.32;3.83;;;;;;;25.02;51.64;100707.72;5092836;28;20043;-67
2021/09/16 00:49:12;;;;;;;19.23;4.22;;;;;;;25.01;51.57;100709.69;5102321;28;20074;-66
2021/09/16 00:51:58;;;;;;;12.45;4.82;;;;;;;25.02;51.64;100713.28;5092814;28;20043;-67
2021/09/16 00:54:45;;;;;;;15.18;3.78;;;;;;;25.02;51.67;100718.84;5101023;28;20066;-66
2021/09/16 00:57:32;;;;;;;11.85;4.13;;;;;;;24.99;51.43;100722.47;5109855;28;20039;-66
2021/09/16 01:00:18;;;;;;;22.83;5.25;;;;;;;24.88;51.51;100727.34;5112742;28;20406;-67
2021/09/16 01:03:03;;;;;;;16.60;5.88;;;;;;;24.86;51.53;100738.03;5112979;28;20054;-66
2021/09/16 01:05:50;;;;;;;13.13;4.15;;;;;;;24.82;51.54;100731.72;5112930;28;20054;-67
2021/09/16 01:08:35;;;;;;;25.13;5.65;;;;;;;24.74;51.40;100731.00;5108181;28;20521;-67
2021/09/16 01:11:21;;;;;;;23.25;4.00;;;;;;;24.73;51.66;100734.22;5112632;28;20055;-67
2021/09/16 01:14:07;;;;;;;16.83;5.60;;;;;;;24.70;51.64;100731.03;5092395;28;20039;-66
2021/09/16 01:16:53;;;;;;;15.77;4.20;;;;;;;24.72;51.71;100738.97;5096798;28;20428;-66
2021/09/16 01:19:38;;;;;;;17.65;5.03;;;;;;;24.71;51.34;100731.81;5094924;28;20051;-68
2021/09/16 01:22:23;;;;;;;12.52;3.95;;;;;;;24.79;51.85;100719.41;5111927;28;20253;-68
2021/09/16 01:25:10;;;;;;;21.95;4.45;;;;;;;24.80;51.75;100709.88;5112249;28;20043;-68
2021/09/16 01:27:56;;;;;;;20.50;4.70;;;;;;;24.78;51.78;100697.59;5093716;28;20051;-68
2021/09/16 01:30:40;;;;;;;10.38;3.95;;;;;;;24.76;51.97;100691.66;5100135;28;20039;-68
2021/09/16 01:33:25;;;;;;;22.90;5.07;;;;;;;24.80;52.00;100684.06;5102651;28;20055;-67
2021/09/16 01:36:10;;;;;;;15.85;4.18;;;;;;;24.87;51.67;100670.91;5110036;28;20046;-68
2021/09/16 01:38:56;;;;;;;14.85;4.25;;;;;;;24.93;51.48;100669.25;5112559;28;20058;-66
2021/09/16 01:41:41;;;;;;;15.88;4.70;;;;;;;24.81;51.77;100674.50;5112515;28;20494;-66
2021/09/16 01:44:26;;;;;;;29.05;5.45;;;;;;;24.73;51.89;100662.69;5112750;28;20043;-66
2021/09/16 01:47:11;;;;;;;16.13;4.70;;;;;;;24.88;51.67;100668.91;5112306;28;20046;-66
2021/09/16 01:49:55;;;;;;;;;;;;;;;24.93;51.72;100683.16;5112810;28;20046;-66
2021/09/16 01:52:41;;;;;;;25.00;4.03;;;;;;;24.91;51.69;100685.56;5111191;28;19912;-66
2021/09/16 01:55:25;;;;;;;12.23;4.90;;;;;;;24.95;51.61;100697.44;5095391;28;20510;-67
2021/09/16 01:58:10;;;;;;;15.90;4.05;;;;;;;24.96;51.63;100698.22;5110780;28;20046;-67
2021/09/16 02:00:55;;;;;;;16.13;4.90;;;;;;;24.80;51.59;100695.19;5116467;28;20050;-66
2021/09/16 02:03:40;;;;;;;18.63;6.43;;;;;;;24.61;52.12;100689.00;5100532;28;20051;-67
2021/09/16 02:06:25;;;;;;;14.23;3.70;;;;;;;24.58;52.37;100695.38;5116130;28;20066;-66
2021/09/16 02:09:10;;;;;;;27.40;5.53;;;;;;;24.62;52.63;100698.94;5122042;28;20415;-68
2021/09/16 02:11:54;;;;;;;27.98;5.07;;;;;;;24.54;52.96;100705.75;5116201;28;20051;-68
2021/09/16 02:14:39;;;;;;;23.92;5.75;;;;;;;24.44;53.31;100684.38;5116134;28;20039;-68
2021/09/16 02:17:24;;;;;;;23.00;4.43;;;;;;;24.37;53.49;100684.47;5116081;28;20062;-68
2021/09/16 02:20:09;;;;;;;13.00;4.43;;;;;;;24.50;53.02;100698.63;5116000;28;20042;-67
2021/09/16 02:22:54;;;;;;;25.02;6.50;;;;;;;24.54;52.80;100686.28;5110397;28;20051;-67
2021/09/16 02:25:39;;;;;;;13.77;4.95;;;;;;;24.42;53.13;100684.03;5093279;28;20043;-68
2021/09/16 02:28:24;;;;;;;22.35;5.65;;;;;;;24.49;53.02;100686.72;5095488;28;20067;-68
2021/09/16 02:31:09;;;;;;;28.58;6.40;;;;;;;24.27;53.36;100685.34;5095242;28;20059;-67
2021/09/16 02:33:54;;;;;;;17.65;5.88;;;;;;;24.23;53.42;100679.78;5095258;28;20051;-68
2021/09/16 02:36:40;;;;;;;28.90;5.32;;;;;;;24.15;53.80;100667.13;5095083;28;20043;-68
2021/09/16 02:39:24;;;;;;;17.55;4.70;;;;;;;24.20;53.68;100657.59;5095467;28;20051;-68
2021/09/16 02:42:09;;;;;;;;;;;;;;;24.25;53.70;100655.16;5095648;28;20047;-68
2021/09/16 02:44:53;;;;;;;17.40;4.72;;;;;;;24.42;53.29;100659.00;5095351;28;20372;-68
2021/09/16 02:47:38;;;;;;;17.85;5.68;;;;;;;24.53;53.04;100659.66;5095129;28;20063;-69
2021/09/16 02:50:23;;;;;;;18.77;5.38;;;;;;;24.59;52.87;100663.59;5095300;28;20047;-69
2021/09/16 02:53:08;;;;;;;16.25;5.00;;;;;;;24.63;52.64;100664.38;5100880;28;20407;-69
2021/09/16 02:55:53;;;;;;;20.50;5.63;;;;;;;24.66;52.60;100657.97;5094956;28;20051;-68
2021/09/16 02:58:37;;;;;;;21.35;6.10;;;;;;;24.58;52.74;100659.22;5099568;28;20066;-69
2021/09/16 03:01:22;;;;;;;21.48;5.53;;;;;;;24.59;52.80;100651.69;5115182;28;20046;-69
2021/09/16 03:04:07;;;;;;;;;;;;;;;24.41;53.30;100657.41;5115649;28;20034;-68
2021/09/16 03:06:51;;;;;;;19.87;4.60;;;;;;;24.53;52.99;100656.88;5112627;28;19911;-69
2021/09/16 03:09:36;;;;;;;18.13;4.45;;;;;;;24.60;52.79;100656.84;5114796;28;20046;-69
2021/09/16 03:12:21;;;;;;;29.42;5.78;;;;;;;24.52;52.96;100651.75;5114703;28;20043;-69
2021/09/16 03:15:07;;;;;;;18.40;4.57;;;;;;;24.47;53.20;100654.97;5114523;28;20043;-66
2021/09/16 03:17:52;;;;;;;19.23;6.05;;;;;;;24.56;52.96;100641.38;5112278;28;20070;-66
2021/09/16 03:20:36;;;;;;;12.60;5.00;;;;;;;24.62;52.69;100648.09;5111062;28;20434;-67
2021/09/16 03:23:21;;;;;;;;;;;;;;;24.67;52.58;100647.63;5114099;28;20058;-66
2021/09/16 03:26:05;;;;;;;12.50;4.82;;;;;;;24.67;52.50;100654.00;5110760;28;19911;-67
2021/09/16 03:28:50;;;;;;;17.73;6.00;;;;;;;24.64;52.43;100660.38;5111645;28;20062;-67
2021/09/16 03:31:35;;;;;;;22.10;6.78;;;;;;;24.42;53.24;100664.56;5113343;28;20038;-67
2021/09/16 03:34:20;;;;;;;26.00;7.00;;;;;;;24.30;53.35;100678.94;5112861;28;20506;-65
2021/09/16 03:37:05;;;;;;;22.77;7.85;;;;;;;24.21;53.82;100673.06;5113703;28;20038;-65
2021/09/16 03:39:50;;;;;;;28.17;7.60;;;;;;;24.14;54.50;100661.97;5110829;28;20051;-65
2021/09/16 03:42:36;;;;;;;22.70;8.07;;;;;;;24.06;54.93;100657.66;5109404;28;20517;-65
2021/09/16 03:45:21;;;;;;;18.02;7.35;;;;;;;23.88;55.75;100653.03;5112778;28;20042;-65
2021/09/16 03:48:07;;;;;;;21.40;6.85;;;;;;;23.87;55.34;100672.88;5113387;28;20043;-65
2021/09/16 03:50:52;;;;;;;34.53;7.65;;;;;;;23.81;55.21;100672.53;5110543;28;20410;-65
2021/09/16 03:53:37;;;;;;;18.10;5.80;;;;;;;23.84;55.49;100680.03;5112224;28;20506;-66
2021/09/16 03:56:22;;;;;;;27.20;7.53;;;;;;;24.10;54.55;100683.44;5113024;28;20039;-65
2021/09/16 03:59:07;;;;;;;18.27;6.22;;;;;;;24.10;54.44;100677.88;5113574;28;20050;-65
2021/09/16 04:01:52;;;;;;;32.70;8.00;;;;;;;24.05;54.71;100678.31;5111058;28;20070;-65
2021/09/16 04:04:36;;;;;;;22.00;6.72;;;;;;;23.99;54.97;100666.84;5111969;28;20055;-65
2021/09/16 04:07:21;;;;;;;43.17;7.68;;;;;;;23.95;55.26;100668.06;5111889;28;20514;-68
2021/09/16 04:10:07;;;;;;;47.97;8.35;;;;;;;23.99;55.11;100671.59;5112773;28;20043;-68
2021/09/16 04:12:52;;;;;;;16.15;5.68;;;;;;;24.12;54.70;100673.50;5109283;28;20050;-64
2021/09/16 04:15:37;;;;;;;104.68;22.38;;;;;;;24.24;54.39;100681.38;5111853;28;20039;-63
2021/09/16 04:18:22;;;;;;;70.55;18.27;;;;;;;24.31;54.33;100683.31;5107248;28;20039;-63
2021/09/16 04:21:07;;;;;;;35.55;8.23;;;;;;;24.37;54.28;100672.56;5112767;28;20047;-63
2021/09/16 04:23:52;;;;;;;23.75;7.85;;;;;;;24.36;54.38;100660.63;5110584;28;20541;-63
2021/09/16 04:26:37;;;;;;;19.63;6.72;;;;;;;24.34;54.50;100656.66;5111331;28;20521;-63
2021/09/16 04:29:22;;;;;;;24.05;5.72;;;;;;;24.34;54.49;100659.44;5112129;28;20046;-63
2021/09/16 04:32:09;;;;;;;20.90;6.50;;;;;;;24.34;54.44;100640.78;5112199;28;20046;-63
2021/09/16 04:34:53;;;;;;;23.33;7.40;;;;;;;24.32;54.54;100632.09;5115104;28;20545;-63
2021/09/16 04:37:38;;;;;;;29.20;6.75;;;;;;;24.29;54.73;100630.09;5111525;28;20054;-63
2021/09/16 04:40:23;;;;;;;25.38;7.22;;;;;;;24.28;54.91;100617.41;5112036;28;20066;-64
2021/09/16 04:43:08;;;;;;;24.95;6.70;;;;;;;24.29;55.02;100610.66;5109849;28;20043;-63
2021/09/16 04:45:52;;;;;;;22.33;6.13;;;;;;;24.26;55.10;100617.84;5110640;28;20042;-63
2021/09/16 04:48:37;;;;;;;28.65;6.88;;;;;;;24.26;54.81;100622.59;5108966;28;20047;-63
2021/09/16 04:51:22;;;;;;;25.98;7.13;;;;;;;24.25;54.92;100621.81;5110351;28;20510;-63
2021/09/16 04:54:08;;;;;;;43.00;7.43;;;;;;;24.23;55.00;100613.09;5110977;28;20506;-63
2021/09/16 04:56:53;;;;;;;36.60;7.55;;;;;;;24.22;54.95;100597.63;5110303;28;20051;-63
2021/09/16 04:59:38;;;;;;;24.33;9.00;;;;;;;24.23;55.07;100590.06;5110259;28;20426;-63
2021/09/16 05:02:22;;;;;;;29.58;7.38;;;;;;;24.22;55.19;100599.63;5110058;28;20042;-63
2021/09/16 05:05:09;;;;;;;28.35;8.18;;;;;;;24.17;55.27;100616.72;5110020;28;20493;-63
2021/09/16 05:07:53;;;;;;;24.42;6.97;;;;;;;24.15;55.34;100619.88;5110548;28;20046;-63
2021/09/16 05:10:38;;;;;;;36.30;8.30;;;;;;;23.69;56.59;100619.44;5112014;28;20046;-66
2021/09/16 05:13:23;;;;;;;21.95;8.73;;;;;;;23.29;58.17;100626.38;5109380;28;20051;-64
2021/09/16 05:16:08;;;;;;;25.85;7.68;;;;;;;23.03;58.94;100622.91;5111099;28;20038;-64
2021/09/16 05:18:53;;;;;;;22.20;7.65;;;;;;;23.04;58.82;100623.69;5110147;28;20101;-65
2021/09/16 05:21:37;;;;;;;33.03;7.65;;;;;;;23.12;58.84;100622.47;5105673;28;20047;-65
2021/09/16 05:24:23;;;;;;;34.13;8.77;;;;;;;23.16;58.81;100623.25;5108994;28;20058;-65
2021/09/16 05:27:07;;;;;;;26.60;8.48;;;;;;;23.20;58.58;100626.81;5109700;28;20046;-65
2021/09/16 05:29:52;;;;;;;28.42;8.52;;;;;;;23.15;58.78;100635.56;5109421;28;20502;-65
2021/09/16 05:32:38;;;;;;;33.30;9.73;;;;;;;23.33;58.31;100649.34;5107356;28;20518;-64
2021/09/16 05:35:23;;;;;;;61.13;15.10;;;;;;;23.34;57.75;100653.69;5110766;28;20062;-64
2021/09/16 05:38:08;;;;;;;52.47;10.98;;;;;;;23.58;57.62;100661.13;5107179;28;20510;-63
2021/09/16 05:40:53;;;;;;;28.23;8.80;;;;;;;23.72;56.91;100661.06;5110502;28;20043;-64
2021/09/16 05:43:37;;;;;;;22.92;7.80;;;;;;;23.76;56.67;100664.63;5109944;28;20051;-65
2021/09/16 05:46:22;;;;;;;;;;;;;;;23.73;56.98;100664.63;5112681;28;20050;-65
2021/09/16 05:49:07;;;;;;;36.05;8.73;;;;;;;23.77;56.67;100662.63;5111739;28;19916;-64
2021/09/16 05:51:52;;;;;;;28.15;8.85;;;;;;;23.81;56.36;100666.97;5109181;28;20066;-64
2021/09/16 05:54:37;;;;;;;23.17;8.32;;;;;;;23.86;55.96;100677.66;5115094;28;20051;-63
2021/09/16 05:57:23;;;;;;;22.88;7.25;;;;;;;23.76;56.36;100675.72;5110940;28;20047;-64
2021/09/16 06:00:09;;;;;;;30.40;8.20;;;;;;;23.76;56.70;100672.94;5111773;28;20042;-65
2021/09/16 06:02:55;;;;;;;29.88;9.80;;;;;;;23.71;56.47;100684.50;5109642;28;20038;-64
2021/09/16 06:05:40;;;;;;;29.48;9.27;;;;;;;23.69;56.61;100689.66;5110454;28;20058;-64
2021/09/16 06:08:25;;;;;;;20.50;9.40;;;;;;;23.75;56.42;100682.47;5110715;28;20038;-64
2021/09/16 06:11:10;;;;;;;31.63;12.02;;;;;;;23.77;56.16;100680.06;5108819;28;20046;-64
2021/09/16 06:13:55;;;;;;;22.35;12.88;;;;;;;23.91;56.08;100684.75;5109679;28;20051;-64
2021/09/16 06:16:40;;;;;;;34.10;11.00;;;;;;;23.83;56.21;100686.00;5108256;28;20046;-64
2021/09/16 06:19:26;;;;;;;30.17;13.63;;;;;;;23.88;56.38;100680.00;5101406;28;20039;-64
2021/09/16 06:22:10;;;;;;;51.90;14.85;;;;;;;23.74;56.88;100682.88;5106160;28;20039;-64
2021/09/16 06:24:56;;;;;;;36.85;16.25;;;;;;;23.57;57.54;100684.53;5106820;28;20035;-65
2021/09/16 06:27:42;;;;;;;43.35;16.42;;;;;;;23.57;57.55;100692.88;5110080;28;20067;-64
2021/09/16 06:30:27;;;;;;;31.23;15.00;;;;;;;23.52;57.69;100686.97;5110975;28;20513;-64
2021/09/16 06:33:14;;;;;;;29.50;15.77;;;;;;;23.53;58.03;100678.22;5109034;28;20050;-64
2021/09/16 06:35:59;;;;;;;28.60;18.38;;;;;;;23.62;57.45;100683.34;5109740;28;20046;-64
2021/09/16 06:38:44;;;;;;;36.85;16.63;;;;;;;23.67;57.48;100678.13;5108143;28;20044;-64
2021/09/16 06:41:29;;;;;;;31.73;13.98;;;;;;;23.64;57.46;100681.75;5114259;28;20043;-64
2021/09/16 06:44:13;;;;;;;40.35;18.35;;;;;;;23.77;57.07;100679.31;5115653;28;20039;-64
2021/09/16 06:46:59;;;;;;;37.40;17.45;;;;;;;23.81;57.06;100677.28;5111203;28;20089;-64
2021/09/16 06:49:48;;;;;;;29.88;18.13;;;;;;;23.74;57.23;100671.75;5114920;28;20044;-64
2021/09/16 06:52:32;;;;;;;32.88;19.80;;;;;;;23.65;57.89;100685.31;5112582;28;20031;-64
2021/09/16 06:55:18;;;;;;;37.10;21.20;;;;;;;23.47;58.58;100681.84;5110532;28;20416;-64
2021/09/16 06:58:02;;;;;;;39.63;20.67;;;;;;;23.32;59.11;100673.53;5111147;28;20048;-64
2021/09/16 07:00:47;;;;;;;40.40;23.70;;;;;;;23.22;59.84;100681.88;5112316;28;20055;-64
2021/09/16 07:03:32;;;;;;;45.10;22.08;;;;;;;23.06;60.52;100684.34;5110592;28;20027;-64
2021/09/16 07:06:17;;;;;;;53.67;21.38;;;;;;;23.10;60.81;100679.56;5107848;28;20434;-64
2021/09/16 07:09:02;;;;;;;47.55;22.75;;;;;;;23.05;60.87;100686.31;5111759;28;20050;-64
2021/09/16 07:11:47;;;;;;;41.67;19.15;;;;;;;23.11;60.39;100692.25;5113956;28;20040;-63
2021/09/16 07:14:31;;;;;;;;;;;;;;;23.14;60.95;100688.66;5111682;28;20502;-64
2021/09/16 07:17:16;;;;;;;45.63;23.33;;;;;;;23.10;61.42;100696.22;5113373;28;19911;-63
2021/09/16 07:20:01;;;;;;;46.95;24.67;;;;;;;22.95;61.93;100707.34;5113205;28;20050;-64
2021/09/16 07:22:46;;;;;;;44.97;27.50;;;;;;;22.73;64.04;100730.75;5113749;28;20047;-65
2021/09/16 07:25:31;;;;;;;56.90;31.98;;;;;;;22.38;66.68;100733.47;5112108;28;20043;-65
2021/09/16 07:28:16;;;;;;;67.05;37.28;;;;;;;22.38;67.90;100730.72;5112256;28;20040;-65
2021/09/16 07:31:02;;;;;;;63.95;36.63;;;;;;;22.25;69.28;100737.84;5113222;28;20479;-65
2021/09/16 07:33:47;;;;;;;65.10;40.10;;;;;;;22.24;69.77;100741.78;5113665;28;20057;-65
2021/09/16 07:36:33;;;;;;;73.05;43.85;;;;;;;22.17;71.74;100748.09;5111481;28;20036;-65
2021/09/16 07:39:20;;;;;;;76.72;44.30;;;;;;;22.20;72.05;100749.31;5112571;28;20109;-64
2021/09/16 07:42:04;;;;;;;84.82;45.58;;;;;;;22.31;72.05;100745.34;5111894;28;20044;-63
2021/09/16 07:44:49;;;;;;;100.55;48.08;;;;;;;21.95;76.19;100749.22;5113854;28;20048;-64
2021/09/16 07:47:34;;;;;;;87.18;49.65;;;;;;;22.01;75.96;100754.00;5111587;28;20043;-63
2021/09/16 07:50:19;;;;;;;86.80;49.25;;;;;;;21.95;76.45;100758.31;5104197;28;20068;-63
2021/09/16 07:53:05;;;;;;;83.20;46.00;;;;;;;21.99;75.79;100761.13;5109488;28;20047;-65
2021/09/16 07:55:50;;;;;;;95.38;51.83;;;;;;;21.28;83.06;100761.56;5109607;28;20044;-65
2021/09/16 07:58:35;;;;;;;93.88;51.10;;;;;;;20.91;87.88;100758.13;5106354;28;20043;-64
2021/09/16 08:01:20;;;;;;;105.78;55.53;;;;;;;20.96;88.70;100748.69;5111971;28;20117;-65
2021/09/16 08:04:04;;;;;;;112.03;57.28;;;;;;;21.08;86.87;100740.84;5112723;28;20431;-64
2021/09/16 08:06:49;;;;;;;112.07;57.67;;;;;;;21.33;85.09;100730.00;5113466;28;20035;-64
2021/09/16 08:09:34;;;;;;;113.85;57.60;;;;;;;21.58;81.90;100730.91;5111331;28;20035;-64
2021/09/16 08:12:19;;;;;;;111.32;55.30;;;;;;;21.71;80.85;100728.56;5111979;28;20043;-65
2021/09/16 08:15:06;;;;;;;100.40;55.65;;;;;;;21.90;80.59;100758.66;5112499;28;20040;-64
2021/09/16 08:17:51;;;;;;;93.70;53.72;;;;;;;21.95;80.16;100754.75;5110550;28;20406;-64
2021/09/16 08:20:41;;;;;;;101.55;50.70;;;;;;;22.14;79.35;100769.06;5111239;28;20490;-65
2021/09/16 08:23:26;;;;;;;94.05;52.28;;;;;;;22.30;78.35;100781.78;5112679;28;20490;-65
2021/09/16 08:26:11;;;;;;;78.20;48.95;;;;;;;22.13;77.66;100803.50;5110865;28;20505;-65
2021/09/16 08:28:56;;;;;;;84.55;46.92;;;;;;;22.27;77.33;100807.47;5111129;28;20483;-65
2021/09/16 08:31:45;;;;;;;78.60;45.72;;;;;;;22.23;76.85;100810.25;5112005;28;20114;-65
2021/09/16 08:34:29;;;;;;;87.40;48.78;;;;;;;22.37;76.57;100807.50;5112880;28;20515;-65
2021/09/16 08:37:14;;;;;;;75.72;44.17;;;;;;;22.28;77.67;100806.28;5110942;28;20502;-64
2021/09/16 08:40:00;;;;;;;76.47;45.58;;;;;;;22.41;76.29;100793.66;5114361;28;20514;-65
2021/09/16 08:42:46;;;;;;;72.65;43.30;;;;;;;22.55;75.53;100793.69;5109320;28;20050;-65
2021/09/16 08:45:31;;;;;;;67.55;42.50;;;;;;;22.68;75.25;100803.19;5109431;28;20039;-65
2021/09/16 08:48:17;;;;;;;80.10;43.38;;;;;;;22.80;74.69;100804.81;5111068;28;20483;-64
2021/09/16 08:51:02;;;;;;;91.82;43.58;;;;;;;22.99;73.43;100796.88;5110160;28;20050;-64
2021/09/16 08:53:51;;;;;;;70.20;42.13;;;;;;;22.80;74.34;100804.81;5112170;28;20054;-64
2021/09/16 08:56:39;;;;;;;66.07;42.05;;;;;;;22.81;74.82;100801.63;5110426;28;20043;-64
2021/09/16 08:59:24;;;;;;;70.70;41.70;;;;;;;22.95;74.18;100796.09;5111864;28;20058;-64
2021/09/16 09:02:09;;;;;;;75.18;41.35;;;;;;;23.00;74.08;100786.59;5112115;28;20491;-64
2021/09/16 09:04:54;;;;;;;71.63;40.30;;;;;;;23.11;73.37;100798.44;5112409;28;20046;-64
2021/09/16 09:07:40;;;;;;;73.47;43.53;;;;;;;23.08;75.07;100806.78;5111124;28;20039;-64
2021/09/16 09:10:46;;;;;;;71.03;41.85;;;;;;;23.09;75.14;100811.94;5109862;28;20039;-64
2021/09/16 09:13:41;;;;;;;67.40;44.15;;;;;;;23.18;74.93;100809.53;5109537;28;20039;-63
2021/09/16 09:16:35;;;;;;;69.20;42.83;;;;;;;23.44;72.60;100803.53;5111491;28;20034;-64
2021/09/16 09:19:23;;;;;;;69.93;39.47;;;;;;;23.63;71.47;100799.53;5111528;28;20062;-62
2021/09/16 09:22:09;;;;;;;64.85;40.10;;;;;;;23.67;71.38;100800.31;5112811;28;20042;-62
2021/09/16 09:25:00;;;;;;;361.33;62.63;;;;;;;23.92;71.60;100811.34;5111935;28;20043;-63
2021/09/16 09:27:50;;;;;;;65.30;40.75;;;;;;;24.26;68.99;100817.16;5108964;28;20044;-62
2021/09/16 09:30:38;;;;;;;72.03;38.72;;;;;;;24.37;68.44;100812.34;5110225;28;20035;-65
2021/09/16 09:33:31;;;;;;;65.35;40.72;;;;;;;24.47;68.16;100811.47;5112339;28;20051;-63
2021/09/16 09:36:19;;;;;;;68.55;41.80;;;;;;;24.11;70.25;100810.88;5092229;28;20063;-62
2021/09/16 09:39:04;;;;;;;67.25;40.03;;;;;;;24.02;70.49;100804.16;5092288;28;20039;-62
2021/09/16 09:41:49;;;;;;;59.28;40.08;;;;;;;24.01;69.42;100799.81;5106342;28;20040;-61
2021/09/16 09:44:35;;;;;;;59.92;37.50;;;;;;;23.78;70.51;100811.38;5110334;28;20042;-62
2021/09/16 09:47:45;;;;;;;57.85;38.55;;;;;;;23.94;70.16;100799.81;5102278;28;20032;-62
2021/09/16 09:50:30;;;;;;;65.00;36.75;;;;;;;24.37;68.08;100798.44;5109219;28;20036;-61
2021/09/16 09:53:15;;;;;;;71.60;38.10;;;;;;;24.60;67.22;100798.66;5104597;28;20052;-62
2021/09/16 09:56:10;;;;;;;66.40;36.13;;;;;;;24.74;65.99;100794.19;5105029;28;20489;-62
2021/09/16 09:58:55;;;;;;;;;;;;;;;24.87;64.87;100787.75;5109024;28;20062;-61
2021/09/16 10:01:39;;;;;;;50.88;32.03;;;;;;;25.00;63.65;100780.47;5104737;28;19912;-62
2021/09/16 10:04:26;;;;;;;51.17;29.33;;;;;;;24.99;62.75;100780.91;5111331;28;20036;-62
2021/09/16 10:07:33;;;;;;;44.60;26.15;;;;;;;25.04;61.83;100772.09;5112002;28;20046;-61
2021/09/16 10:10:18;;;;;;;44.75;25.83;;;;;;;24.74;61.92;100767.16;5112104;28;20399;-61
2021/09/16 10:13:04;;;;;;;38.88;22.55;;;;;;;24.64;61.69;100779.94;5112248;28;20048;-60
2021/09/16 10:15:52;;;;;;;134.70;23.60;;;;;;;24.75;61.38;100771.53;5114396;28;20047;-57
2021/09/16 10:18:37;;;;;;;34.85;16.98;;;;;;;24.42;61.39;100772.97;5095769;28;20414;-60
2021/09/16 10:21:22;;;;;;;32.92;20.70;;;;;;;24.43;61.76;100760.63;5095693;28;20426;-60
2021/09/16 10:24:13;;;;;;;38.97;23.15;;;;;;;24.31;62.70;100761.13;5095678;28;20044;-60
2021/09/16 10:26:59;;;;;;;37.78;23.52;;;;;;;24.18;62.66;100757.25;5095429;28;20047;-60
2021/09/16 10:29:44;;;;;;;41.92;22.50;;;;;;;24.23;62.25;100765.16;5095769;28;20040;-60
2021/09/16 10:32:29;;;;;;;34.75;21.92;;;;;;;24.22;62.34;100769.16;5095425;28;20055;-60
2021/09/16 10:35:18;;;;;;;36.42;21.02;;;;;;;24.25;62.68;100774.69;5095625;28;20036;-60
2021/09/16 10:38:24;;;;;;;37.90;20.35;;;;;;;24.23;62.47;100779.84;5095126;28;20036;-61
2021/09/16 10:41:12;;;;;;;39.78;20.83;;;;;;;24.17;61.96;100778.72;5095294;28;20036;-61
2021/09/16 10:43:59;;;;;;;34.88;18.67;;;;;;;24.07;62.07;100779.53;5095281;28;20047;-61
2021/09/16 10:46:46;;;;;;;44.88;18.70;;;;;;;24.08;62.20;100771.97;5095234;28;20043;-61
2021/09/16 10:49:32;;;;;;;33.28;17.98;;;;;;;24.13;62.18;100766.78;5095284;28;20427;-61
2021/09/16 10:52:23;;;;;;;39.63;19.13;;;;;;;24.18;62.29;100760.00;5095295;28;20043;-61
2021/09/16 10:55:08;;;;;;;31.95;18.58;;;;;;;24.24;62.42;100764.75;5095071;28;20518;-61
2021/09/16 10:57:53;;;;;;;47.83;19.38;;;;;;;24.17;61.74;100769.56;5095094;28;20118;-61
2021/09/16 11:00:41;;;;;;;30.10;15.02;;;;;;;24.22;61.20;100764.38;5095115;28;20050;-61
2021/09/16 11:03:25;;;;;;;35.65;15.88;;;;;;;24.21;61.29;100768.34;5094899;28;20048;-61
2021/09/16 11:06:10;;;;;;;31.77;14.65;;;;;;;24.21;60.60;100765.56;5094918;28;20040;-61
2021/09/16 11:09:00;;;;;;;32.78;17.13;;;;;;;24.34;60.38;100763.09;5094708;28;20051;-61
2021/09/16 11:12:03;;;;;;;31.80;17.55;;;;;;;24.50;59.54;100766.16;5107499;28;20070;-61
2021/09/16 11:14:57;;;;;;;34.33;17.40;;;;;;;24.37;60.11;100751.19;5115182;28;20415;-61
2021/09/16 11:17:44;;;;;;;41.83;18.48;;;;;;;24.37;60.78;100755.94;5115225;28;20050;-61
2021/09/16 11:20:28;;;;;;;35.88;16.63;;;;;;;24.43;60.82;100759.88;5115028;28;20409;-61
2021/09/16 11:23:15;;;;;;;34.08;17.63;;;;;;;24.50;59.70;100746.69;5115139;28;20399;-61
2021/09/16 11:26:00;;;;;;;36.33;16.15;;;;;;;24.52;59.90;100749.88;5114581;28;20036;-61
2021/09/16 11:29:00;;;;;;;26.48;14.98;;;;;;;24.65;59.01;100748.16;5115815;28;20055;-61
2021/09/16 11:31:44;;;;;;;28.95;15.82;;;;;;;24.59;59.47;100741.44;5114931;28;20484;-61
2021/09/16 11:34:29;;;;;;;;;;;;;;;24.49;60.04;100745.09;5115215;28;20050;-61
2021/09/16 11:37:17;;;;;;;28.03;13.73;;;;;;;24.49;60.30;100742.34;5114561;28;19916;-61
2021/09/16 11:40:09;;;;;;;25.65;14.75;;;;;;;24.50;59.97;100738.34;5095132;28;20495;-61
2021/09/16 11:42:58;;;;;;;28.88;13.48;;;;;;;24.58;59.75;100737.09;5094148;28;20040;-61
2021/09/16 11:45:48;;;;;;;31.92;13.23;;;;;;;24.48;60.53;100734.41;5094096;28;20043;-61
2021/09/16 11:48:33;;;;;;;22.77;13.35;;;;;;;24.41;60.19;100724.13;5094013;28;20066;-61
2021/09/16 11:51:18;;;;;;;26.02;13.48;;;;;;;24.52;60.31;100727.63;5094173;28;20044;-61
2021/09/16 11:54:10;;;;;;;34.35;13.80;;;;;;;24.46;60.52;100728.47;5093945;28;20032;-61
2021/09/16 11:57:02;;;;;;;27.33;14.82;;;;;;;24.52;60.40;100719.28;5093756;28;20048;-61
2021/09/16 11:59:47;;;;;;;27.55;15.00;;;;;;;24.59;59.76;100730.31;5095699;28;20051;-61
2021/09/16 12:02:47;;;;;;;29.98;13.63;;;;;;;24.67;59.67;100731.88;5114281;28;20043;-61
2021/09/16 12:05:38;;;;;;;31.63;14.60;;;;;;;24.64;59.85;100727.09;5114364;28;20036;-61
2021/09/16 12:08:29;;;;;;;34.35;15.93;;;;;;;24.69;59.47;100725.88;5114008;28;20044;-61
2021/09/16 12:11:17;;;;;;;34.38;16.98;;;;;;;24.71;59.78;100729.84;5114047;28;20430;-61
2021/09/16 12:14:03;;;;;;;28.77;16.23;;;;;;;24.68;60.05;100729.88;5113990;28;20047;-61
2021/09/16 12:16:49;;;;;;;32.13;17.15;;;;;;;24.64;59.91;100727.09;5113916;28;20517;-61
2021/09/16 12:19:35;;;;;;;24.00;14.05;;;;;;;24.68;59.13;100719.53;5113741;28;20047;-61
2021/09/16 12:22:19;;;;;;;27.90;13.93;;;;;;;24.64;59.30;100709.63;5113926;28;20408;-65
2021/09/16 12:25:05;;;;;;;29.95;13.38;;;;;;;24.67;59.29;100709.63;5113430;28;20047;-65
2021/09/16 12:28:07;;;;;;;26.83;11.52;;;;;;;24.67;58.80;100697.69;5109057;28;20040;-64
2021/09/16 12:30:52;;;;;;;23.25;10.98;;;;;;;24.69;58.80;100693.28;5111092;28;20043;-65
2021/09/16 12:33:40;;;;;;;25.67;10.27;;;;;;;24.71;58.19;100682.56;5112960;28;20051;-66
2021/09/16 12:36:26;;;;;;;21.58;10.93;;;;;;;24.82;57.92;100673.31;5113192;28;20046;-65
2021/09/16 12:39:13;;;;;;;18.05;9.02;;;;;;;24.86;57.11;100674.84;5112328;28;20039;-65
2021/09/16 12:42:00;;;;;;;22.40;8.07;;;;;;;24.88;56.76;100668.91;5113379;28;20113;-65